Villanueva del Ariscal, Spain
Current Conditions -  °F | °C
As of 8:00 AM on Saturday 20 Dec 2014 (Local Time) from LEZL Reporting Station
Moderate Fog Moderate Fog  
Wind Chill: 43°   Ceiling: 100
Heat Index: 43°   Visibility: 0.37mi
Dew Point: 43°   Wind: 2mph
Humidity: 100%   Direction: NA
Pressure: 30.45"   Gusts: NA
Location:  37.4°N, 6.14°W
Report Text: LEZL 200700Z VRB02KT 0600 R27/0700N R09/0650D FG VV00106/06 Q1031 NOSIG
Loading
Personal Weather Stations






























Interactive Weather Map New forecast layout! Learn more

10-Day Weather Forecast

Advertisements
Track Severe Weather on mobile